Airport View

Enter AWOS ICAO identifier for current METAR.

ex. KFNL

KLDJ 280255Z AUTO 12004KT 7SM OVC004 22/20 A2991 RMK AO2 T02160204

28 Sep 2020 03:03

Frequency: 124.025

Phone: 908-862-7383

Other Area AWOS: KEWR - KJRB - KMMU - KCDW

TAF AMD KEWR 280250Z 2803/2906 13005KT 4SM BR VCSH OVC004 FM280400 VRB03KT 2SM BR VCSH OVC003 FM281300 17005KT 5SM BR VCSH BKN008 FM281500 18008KT P6SM BKN020 FM281900 18010KT P6SM SCT020 BKN040 FM282200 17007KT P6SM SCT030 BKN070